sensor_id;sensor_type;location;lat;lon;timestamp;temperature;humidity
25128;DHT22;13107;51.304;6.866;2023-10-13T00:01:43;16.50;99.90
25128;DHT22;13107;51.304;6.866;2023-10-13T00:05:45;16.50;99.90
25128;DHT22;13107;51.304;6.866;2023-10-13T00:09:47;16.60;99.90
25128;DHT22;13107;51.304;6.866;2023-10-13T00:13:49;16.70;99.90
25128;DHT22;13107;51.304;6.866;2023-10-13T00:17:54;16.70;99.90
25128;DHT22;13107;51.304;6.866;2023-10-13T00:21:57;16.60;99.90
25128;DHT22;13107;51.304;6.866;2023-10-13T00:26:10;16.70;99.90
25128;DHT22;13107;51.304;6.866;2023-10-13T00:30:12;16.70;99.90
25128;DHT22;13107;51.304;6.866;2023-10-13T00:34:20;16.60;99.90
25128;DHT22;13107;51.304;6.866;2023-10-13T00:38:27;16.60;99.90
25128;DHT22;13107;51.304;6.866;2023-10-13T00:42:29;16.60;99.90
25128;DHT22;13107;51.304;6.866;2023-10-13T00:46:51;16.60;99.90
25128;DHT22;13107;51.304;6.866;2023-10-13T00:50:58;16.60;99.90
25128;DHT22;13107;51.304;6.866;2023-10-13T00:55:05;16.60;99.90
25128;DHT22;13107;51.304;6.866;2023-10-13T00:59:10;16.60;99.90
25128;DHT22;13107;51.304;6.866;2023-10-13T01:03:12;16.70;99.90
25128;DHT22;13107;51.304;6.866;2023-10-13T01:07:16;16.60;99.90
25128;DHT22;13107;51.304;6.866;2023-10-13T01:11:18;16.70;99.90
25128;DHT22;13107;51.304;6.866;2023-10-13T01:15:20;16.60;99.90
25128;DHT22;13107;51.304;6.866;2023-10-13T01:19:23;16.70;99.90
25128;DHT22;13107;51.304;6.866;2023-10-13T01:23:29;16.60;99.90
25128;DHT22;13107;51.304;6.866;2023-10-13T01:27:40;16.60;99.90
25128;DHT22;13107;51.304;6.866;2023-10-13T01:31:43;16.60;99.90
25128;DHT22;13107;51.304;6.866;2023-10-13T01:35:48;16.60;99.90
25128;DHT22;13107;51.304;6.866;2023-10-13T01:39:50;16.60;99.90
25128;DHT22;13107;51.304;6.866;2023-10-13T01:43:52;16.60;99.90
25128;DHT22;13107;51.304;6.866;2023-10-13T01:47:58;16.60;99.90
25128;DHT22;13107;51.304;6.866;2023-10-13T01:52:00;16.60;99.90
25128;DHT22;13107;51.304;6.866;2023-10-13T01:56:05;16.50;99.90
25128;DHT22;13107;51.304;6.866;2023-10-13T02:00:11;16.50;99.90
25128;DHT22;13107;51.304;6.866;2023-10-13T02:04:21;16.50;99.90
25128;DHT22;13107;51.304;6.866;2023-10-13T02:08:24;16.50;99.90
25128;DHT22;13107;51.304;6.866;2023-10-13T02:12:26;16.50;99.90
25128;DHT22;13107;51.304;6.866;2023-10-13T02:16:41;16.50;99.90
25128;DHT22;13107;51.304;6.866;2023-10-13T02:20:43;16.50;99.90
25128;DHT22;13107;51.304;6.866;2023-10-13T02:24:47;16.50;99.90
25128;DHT22;13107;51.304;6.866;2023-10-13T02:28:53;16.40;99.90
25128;DHT22;13107;51.304;6.866;2023-10-13T02:32:58;16.40;99.90
25128;DHT22;13107;51.304;6.866;2023-10-13T02:37:07;16.40;99.90
25128;DHT22;13107;51.304;6.866;2023-10-13T02:41:16;16.40;99.90
25128;DHT22;13107;51.304;6.866;2023-10-13T02:45:27;16.40;99.90
25128;DHT22;13107;51.304;6.866;2023-10-13T02:49:29;16.40;99.90
25128;DHT22;13107;51.304;6.866;2023-10-13T02:53:35;16.40;99.90
25128;DHT22;13107;51.304;6.866;2023-10-13T02:57:37;16.50;99.90
25128;DHT22;13107;51.304;6.866;2023-10-13T03:01:41;16.60;99.90
25128;DHT22;13107;51.304;6.866;2023-10-13T03:05:43;16.50;99.90
25128;DHT22;13107;51.304;6.866;2023-10-13T03:09:44;16.40;99.90
25128;DHT22;13107;51.304;6.866;2023-10-13T03:13:52;16.40;99.90
25128;DHT22;13107;51.304;6.866;2023-10-13T03:17:54;16.40;99.90
25128;DHT22;13107;51.304;6.866;2023-10-13T03:21:56;16.40;99.90
25128;DHT22;13107;51.304;6.866;2023-10-13T03:26:09;16.50;99.90
25128;DHT22;13107;51.304;6.866;2023-10-13T03:30:11;16.50;99.90
25128;DHT22;13107;51.304;6.866;2023-10-13T03:34:17;16.50;99.90
25128;DHT22;13107;51.304;6.866;2023-10-13T03:38:21;16.50;99.90
25128;DHT22;13107;51.304;6.866;2023-10-13T03:42:28;16.50;99.90
25128;DHT22;13107;51.304;6.866;2023-10-13T03:46:30;16.50;99.90
25128;DHT22;13107;51.304;6.866;2023-10-13T03:50:32;16.50;99.90
25128;DHT22;13107;51.304;6.866;2023-10-13T03:54:34;16.50;99.90
25128;DHT22;13107;51.304;6.866;2023-10-13T03:58:38;16.50;99.90
25128;DHT22;13107;51.304;6.866;2023-10-13T04:02:40;16.40;99.90
25128;DHT22;13107;51.304;6.866;2023-10-13T04:06:54;16.40;99.90
25128;DHT22;13107;51.304;6.866;2023-10-13T04:11:14;16.40;99.90
25128;DHT22;13107;51.304;6.866;2023-10-13T04:15:34;16.50;99.90
25128;DHT22;13107;51.304;6.866;2023-10-13T04:19:44;16.40;99.90
25128;DHT22;13107;51.304;6.866;2023-10-13T04:24:09;16.40;99.90
25128;DHT22;13107;51.304;6.866;2023-10-13T04:28:20;16.40;99.90
25128;DHT22;13107;51.304;6.866;2023-10-13T04:32:39;16.30;99.90
25128;DHT22;13107;51.304;6.866;2023-10-13T04:36:48;16.40;99.90
25128;DHT22;13107;51.304;6.866;2023-10-13T04:40:57;16.40;99.90
25128;DHT22;13107;51.304;6.866;2023-10-13T04:45:03;16.40;99.90
25128;DHT22;13107;51.304;6.866;2023-10-13T04:49:19;16.50;99.90
25128;DHT22;13107;51.304;6.866;2023-10-13T04:53:30;16.50;99.90
25128;DHT22;13107;51.304;6.866;2023-10-13T04:57:35;16.50;99.90
25128;DHT22;13107;51.304;6.866;2023-10-13T05:01:54;16.50;99.90
25128;DHT22;13107;51.304;6.866;2023-10-13T05:05:59;16.50;99.90
25128;DHT22;13107;51.304;6.866;2023-10-13T05:10:34;16.50;99.90
25128;DHT22;13107;51.304;6.866;2023-10-13T05:14:55;16.60;99.90
25128;DHT22;13107;51.304;6.866;2023-10-13T05:19:15;16.60;99.90
25128;DHT22;13107;51.304;6.866;2023-10-13T05:23:36;16.60;99.90
25128;DHT22;13107;51.304;6.866;2023-10-13T05:27:56;16.60;99.90
25128;DHT22;13107;51.304;6.866;2023-10-13T05:32:27;16.60;99.90
25128;DHT22;13107;51.304;6.866;2023-10-13T05:36:48;16.70;99.90
25128;DHT22;13107;51.304;6.866;2023-10-13T05:41:08;16.70;99.90
25128;DHT22;13107;51.304;6.866;2023-10-13T05:45:29;16.80;99.90
25128;DHT22;13107;51.304;6.866;2023-10-13T05:49:49;16.70;99.90
25128;DHT22;13107;51.304;6.866;2023-10-13T05:53:52;16.80;99.90
25128;DHT22;13107;51.304;6.866;2023-10-13T05:58:12;16.90;99.90
25128;DHT22;13107;51.304;6.866;2023-10-13T06:02:33;16.90;99.90
25128;DHT22;13107;51.304;6.866;2023-10-13T06:06:53;16.90;99.90
25128;DHT22;13107;51.304;6.866;2023-10-13T06:11:13;16.90;99.90
25128;DHT22;13107;51.304;6.866;2023-10-13T06:15:36;16.90;99.90
25128;DHT22;13107;51.304;6.866;2023-10-13T06:19:56;16.90;99.90
25128;DHT22;13107;51.304;6.866;2023-10-13T06:24:17;17.00;99.90
25128;DHT22;13107;51.304;6.866;2023-10-13T06:28:38;17.00;99.90
25128;DHT22;13107;51.304;6.866;2023-10-13T06:32:43;17.00;99.90
25128;DHT22;13107;51.304;6.866;2023-10-13T06:36:47;17.00;99.90
25128;DHT22;13107;51.304;6.866;2023-10-13T06:40:50;17.00;99.90
25128;DHT22;13107;51.304;6.866;2023-10-13T06:44:55;17.00;99.90
25128;DHT22;13107;51.304;6.866;2023-10-13T06:48:57;17.00;99.90
25128;DHT22;13107;51.304;6.866;2023-10-13T06:53:01;17.00;99.90
25128;DHT22;13107;51.304;6.866;2023-10-13T06:57:03;17.10;99.90
25128;DHT22;13107;51.304;6.866;2023-10-13T07:01:08;17.10;99.90
25128;DHT22;13107;51.304;6.866;2023-10-13T07:05:16;17.00;99.90
25128;DHT22;13107;51.304;6.866;2023-10-13T07:09:18;17.10;99.90
25128;DHT22;13107;51.304;6.866;2023-10-13T07:13:38;17.10;99.90
25128;DHT22;13107;51.304;6.866;2023-10-13T07:17:41;17.20;99.90
25128;DHT22;13107;51.304;6.866;2023-10-13T07:21:46;17.30;99.90
25128;DHT22;13107;51.304;6.866;2023-10-13T07:25:56;17.30;99.90
25128;DHT22;13107;51.304;6.866;2023-10-13T07:30:05;17.40;99.90
25128;DHT22;13107;51.304;6.866;2023-10-13T07:34:15;17.40;99.90
25128;DHT22;13107;51.304;6.866;2023-10-13T07:38:27;17.50;99.90
25128;DHT22;13107;51.304;6.866;2023-10-13T07:42:32;17.50;99.90
25128;DHT22;13107;51.304;6.866;2023-10-13T07:46:40;17.50;99.90
25128;DHT22;13107;51.304;6.866;2023-10-13T07:50:42;17.70;99.90
25128;DHT22;13107;51.304;6.866;2023-10-13T07:54:46;17.70;99.90
25128;DHT22;13107;51.304;6.866;2023-10-13T07:58:58;17.70;99.90
25128;DHT22;13107;51.304;6.866;2023-10-13T08:03:06;17.70;99.90
25128;DHT22;13107;51.304;6.866;2023-10-13T08:07:17;17.80;99.90
25128;DHT22;13107;51.304;6.866;2023-10-13T08:11:29;17.80;99.90
25128;DHT22;13107;51.304;6.866;2023-10-13T08:15:36;17.90;99.90
25128;DHT22;13107;51.304;6.866;2023-10-13T08:19:38;17.90;99.90
25128;DHT22;13107;51.304;6.866;2023-10-13T08:23:52;17.90;99.90
25128;DHT22;13107;51.304;6.866;2023-10-13T08:27:56;17.90;99.90
25128;DHT22;13107;51.304;6.866;2023-10-13T08:32:01;18.00;99.90
25128;DHT22;13107;51.304;6.866;2023-10-13T08:36:07;18.10;99.90
25128;DHT22;13107;51.304;6.866;2023-10-13T08:40:27;18.10;99.90
25128;DHT22;13107;51.304;6.866;2023-10-13T08:44:58;18.20;99.90
25128;DHT22;13107;51.304;6.866;2023-10-13T08:49:06;18.50;99.90
25128;DHT22;13107;51.304;6.866;2023-10-13T08:53:27;18.60;99.90
25128;DHT22;13107;51.304;6.866;2023-10-13T08:57:31;18.80;99.90
25128;DHT22;13107;51.304;6.866;2023-10-13T09:01:36;18.80;99.90
25128;DHT22;13107;51.304;6.866;2023-10-13T09:05:43;18.90;99.90
25128;DHT22;13107;51.304;6.866;2023-10-13T09:10:02;18.90;99.90
25128;DHT22;13107;51.304;6.866;2023-10-13T09:14:14;19.10;99.90
25128;DHT22;13107;51.304;6.866;2023-10-13T09:18:34;19.40;99.90
25128;DHT22;13107;51.304;6.866;2023-10-13T09:22:55;19.50;99.90
25128;DHT22;13107;51.304;6.866;2023-10-13T09:27:03;19.60;99.90
25128;DHT22;13107;51.304;6.866;2023-10-13T09:31:06;19.80;99.90
25128;DHT22;13107;51.304;6.866;2023-10-13T09:35:11;20.10;99.90
25128;DHT22;13107;51.304;6.866;2023-10-13T09:39:17;20.40;99.90
25128;DHT22;13107;51.304;6.866;2023-10-13T09:43:31;20.60;99.90
25128;DHT22;13107;51.304;6.866;2023-10-13T09:47:33;20.90;99.90
25128;DHT22;13107;51.304;6.866;2023-10-13T09:51:39;21.50;99.90
25128;DHT22;13107;51.304;6.866;2023-10-13T10:00:16;21.80;99.90
25128;DHT22;13107;51.304;6.866;2023-10-13T10:04:38;21.80;99.90
25128;DHT22;13107;51.304;6.866;2023-10-13T10:08:52;21.80;99.90
25128;DHT22;13107;51.304;6.866;2023-10-13T10:13:32;21.80;99.90
25128;DHT22;13107;51.304;6.866;2023-10-13T10:17:43;21.60;99.90
25128;DHT22;13107;51.304;6.866;2023-10-13T10:21:45;21.60;99.90
25128;DHT22;13107;51.304;6.866;2023-10-13T10:25:50;21.60;99.90
25128;DHT22;13107;51.304;6.866;2023-10-13T10:29:53;21.60;99.90
25128;DHT22;13107;51.304;6.866;2023-10-13T10:33:55;21.70;99.90
25128;DHT22;13107;51.304;6.866;2023-10-13T10:42:24;21.60;99.90
25128;DHT22;13107;51.304;6.866;2023-10-13T10:46:30;21.50;99.90
25128;DHT22;13107;51.304;6.866;2023-10-13T10:50:51;21.50;99.90
25128;DHT22;13107;51.304;6.866;2023-10-13T10:54:59;21.60;99.90
25128;DHT22;13107;51.304;6.866;2023-10-13T10:59:01;21.70;99.90
25128;DHT22;13107;51.304;6.866;2023-10-13T11:03:03;21.70;99.90
25128;DHT22;13107;51.304;6.866;2023-10-13T11:07:06;21.70;99.90
25128;DHT22;13107;51.304;6.866;2023-10-13T11:11:09;21.50;99.90
25128;DHT22;13107;51.304;6.866;2023-10-13T11:15:19;21.50;99.90
25128;DHT22;13107;51.304;6.866;2023-10-13T11:19:38;21.70;99.90
25128;DHT22;13107;51.304;6.866;2023-10-13T11:23:40;21.70;99.90
25128;DHT22;13107;51.304;6.866;2023-10-13T11:27:42;21.80;99.90
25128;DHT22;13107;51.304;6.866;2023-10-13T11:31:50;21.90;99.90
25128;DHT22;13107;51.304;6.866;2023-10-13T11:36:02;22.10;99.90
25128;DHT22;13107;51.304;6.866;2023-10-13T11:40:05;22.20;99.90
25128;DHT22;13107;51.304;6.866;2023-10-13T11:44:17;22.20;99.90
25128;DHT22;13107;51.304;6.866;2023-10-13T11:48:19;22.30;99.90
25128;DHT22;13107;51.304;6.866;2023-10-13T11:52:35;22.30;99.90
25128;DHT22;13107;51.304;6.866;2023-10-13T11:56:37;22.40;99.90
25128;DHT22;13107;51.304;6.866;2023-10-13T12:00:40;22.70;99.90
25128;DHT22;13107;51.304;6.866;2023-10-13T12:05:17;22.80;99.90
25128;DHT22;13107;51.304;6.866;2023-10-13T12:09:29;23.00;99.90
25128;DHT22;13107;51.304;6.866;2023-10-13T12:13:43;23.00;99.90
25128;DHT22;13107;51.304;6.866;2023-10-13T12:17:45;23.00;99.90
25128;DHT22;13107;51.304;6.866;2023-10-13T12:21:47;23.00;99.90
25128;DHT22;13107;51.304;6.866;2023-10-13T12:25:50;23.00;99.90
25128;DHT22;13107;51.304;6.866;2023-10-13T12:30:02;23.00;99.90
25128;DHT22;13107;51.304;6.866;2023-10-13T12:34:12;23.00;99.90
25128;DHT22;13107;51.304;6.866;2023-10-13T12:38:21;23.00;99.90
25128;DHT22;13107;51.304;6.866;2023-10-13T12:42:42;22.90;99.90
25128;DHT22;13107;51.304;6.866;2023-10-13T12:47:03;22.80;99.90
25128;DHT22;13107;51.304;6.866;2023-10-13T12:51:24;22.70;99.90
25128;DHT22;13107;51.304;6.866;2023-10-13T12:55:40;22.70;99.90
25128;DHT22;13107;51.304;6.866;2023-10-13T12:59:42;22.70;99.90
25128;DHT22;13107;51.304;6.866;2023-10-13T13:03:44;22.70;99.90
25128;DHT22;13107;51.304;6.866;2023-10-13T13:07:46;22.80;99.90
25128;DHT22;13107;51.304;6.866;2023-10-13T13:11:54;22.80;99.90
25128;DHT22;13107;51.304;6.866;2023-10-13T13:16:00;22.70;99.90
25128;DHT22;13107;51.304;6.866;2023-10-13T13:20:02;22.70;99.90
25128;DHT22;13107;51.304;6.866;2023-10-13T13:24:12;22.50;99.90
25128;DHT22;13107;51.304;6.866;2023-10-13T13:28:15;22.60;99.90
25128;DHT22;13107;51.304;6.866;2023-10-13T13:32:17;22.60;99.90
25128;DHT22;13107;51.304;6.866;2023-10-13T13:36:21;22.60;99.90
25128;DHT22;13107;51.304;6.866;2023-10-13T13:40:24;22.60;99.90
25128;DHT22;13107;51.304;6.866;2023-10-13T13:44:26;22.60;99.90
25128;DHT22;13107;51.304;6.866;2023-10-13T13:48:30;22.60;99.90
25128;DHT22;13107;51.304;6.866;2023-10-13T13:52:34;22.50;99.90
25128;DHT22;13107;51.304;6.866;2023-10-13T13:56:47;22.50;99.90
25128;DHT22;13107;51.304;6.866;2023-10-13T14:00:49;22.50;99.90
25128;DHT22;13107;51.304;6.866;2023-10-13T14:04:51;22.50;99.90
25128;DHT22;13107;51.304;6.866;2023-10-13T14:08:59;22.60;99.90
25128;DHT22;13107;51.304;6.866;2023-10-13T14:13:05;22.60;99.90
25128;DHT22;13107;51.304;6.866;2023-10-13T14:17:15;22.50;99.90
25128;DHT22;13107;51.304;6.866;2023-10-13T14:21:17;22.50;99.90
25128;DHT22;13107;51.304;6.866;2023-10-13T14:25:20;22.30;99.90
25128;DHT22;13107;51.304;6.866;2023-10-13T14:29:26;22.30;99.90
25128;DHT22;13107;51.304;6.866;2023-10-13T14:33:28;22.10;99.90
25128;DHT22;13107;51.304;6.866;2023-10-13T14:37:33;22.20;99.90
25128;DHT22;13107;51.304;6.866;2023-10-13T14:41:35;22.10;99.90
25128;DHT22;13107;51.304;6.866;2023-10-13T14:45:38;22.10;99.90
25128;DHT22;13107;51.304;6.866;2023-10-13T14:49:39;22.10;99.90
25128;DHT22;13107;51.304;6.866;2023-10-13T14:53:43;22.00;99.90
25128;DHT22;13107;51.304;6.866;2023-10-13T14:57:49;22.00;99.90
25128;DHT22;13107;51.304;6.866;2023-10-13T15:01:52;21.90;99.90
25128;DHT22;13107;51.304;6.866;2023-10-13T15:05:54;21.90;99.90
25128;DHT22;13107;51.304;6.866;2023-10-13T15:09:56;21.80;99.90
25128;DHT22;13107;51.304;6.866;2023-10-13T15:13:58;21.70;99.90
25128;DHT22;13107;51.304;6.866;2023-10-13T15:18:01;21.70;99.90
25128;DHT22;13107;51.304;6.866;2023-10-13T15:22:03;21.70;99.90
25128;DHT22;13107;51.304;6.866;2023-10-13T15:26:08;21.70;99.90
25128;DHT22;13107;51.304;6.866;2023-10-13T15:30:16;21.70;99.90
25128;DHT22;13107;51.304;6.866;2023-10-13T15:34:25;21.70;99.90
25128;DHT22;13107;51.304;6.866;2023-10-13T15:38:28;21.60;99.90
25128;DHT22;13107;51.304;6.866;2023-10-13T15:42:32;21.60;99.90
25128;DHT22;13107;51.304;6.866;2023-10-13T15:46:34;21.60;99.90
25128;DHT22;13107;51.304;6.866;2023-10-13T15:50:57;21.40;99.90
25128;DHT22;13107;51.304;6.866;2023-10-13T15:54:59;21.50;99.90
25128;DHT22;13107;51.304;6.866;2023-10-13T15:59:01;21.60;99.90
25128;DHT22;13107;51.304;6.866;2023-10-13T16:03:04;21.50;99.90
25128;DHT22;13107;51.304;6.866;2023-10-13T16:07:13;21.50;99.90
25128;DHT22;13107;51.304;6.866;2023-10-13T16:11:15;21.40;99.90
25128;DHT22;13107;51.304;6.866;2023-10-13T16:15:19;21.30;99.90
25128;DHT22;13107;51.304;6.866;2023-10-13T16:19:23;21.30;99.90
25128;DHT22;13107;51.304;6.866;2023-10-13T16:23:25;21.30;99.90
25128;DHT22;13107;51.304;6.866;2023-10-13T16:27:26;21.30;99.90
25128;DHT22;13107;51.304;6.866;2023-10-13T16:31:28;21.20;99.90
25128;DHT22;13107;51.304;6.866;2023-10-13T16:35:30;21.20;99.90
25128;DHT22;13107;51.304;6.866;2023-10-13T16:39:35;21.20;99.90
25128;DHT22;13107;51.304;6.866;2023-10-13T16:43:41;21.10;99.90
25128;DHT22;13107;51.304;6.866;2023-10-13T16:47:44;21.00;99.90
25128;DHT22;13107;51.304;6.866;2023-10-13T16:51:45;21.00;99.90
25128;DHT22;13107;51.304;6.866;2023-10-13T16:55:47;21.00;99.90
25128;DHT22;13107;51.304;6.866;2023-10-13T16:59:49;21.00;99.90
25128;DHT22;13107;51.304;6.866;2023-10-13T17:03:51;20.90;99.90
25128;DHT22;13107;51.304;6.866;2023-10-13T17:07:53;20.80;99.90
25128;DHT22;13107;51.304;6.866;2023-10-13T17:11:55;20.70;99.90
25128;DHT22;13107;51.304;6.866;2023-10-13T17:15:57;20.60;99.90
25128;DHT22;13107;51.304;6.866;2023-10-13T17:20:01;20.40;99.90
25128;DHT22;13107;51.304;6.866;2023-10-13T17:24:07;20.20;99.90
25128;DHT22;13107;51.304;6.866;2023-10-13T17:28:09;20.20;99.90
25128;DHT22;13107;51.304;6.866;2023-10-13T17:32:17;20.20;99.90
25128;DHT22;13107;51.304;6.866;2023-10-13T17:36:18;20.10;99.90
25128;DHT22;13107;51.304;6.866;2023-10-13T17:40:20;20.00;99.90
25128;DHT22;13107;51.304;6.866;2023-10-13T17:44:22;19.90;99.90
25128;DHT22;13107;51.304;6.866;2023-10-13T17:48:24;19.80;99.90
25128;DHT22;13107;51.304;6.866;2023-10-13T17:52:26;19.80;99.90
25128;DHT22;13107;51.304;6.866;2023-10-13T17:56:28;19.80;99.90
25128;DHT22;13107;51.304;6.866;2023-10-13T18:00:32;19.70;99.90
25128;DHT22;13107;51.304;6.866;2023-10-13T18:04:34;19.80;99.90
25128;DHT22;13107;51.304;6.866;2023-10-13T18:08:37;19.70;99.90
25128;DHT22;13107;51.304;6.866;2023-10-13T18:12:39;19.80;99.90
25128;DHT22;13107;51.304;6.866;2023-10-13T18:16:44;19.80;99.90
25128;DHT22;13107;51.304;6.866;2023-10-13T18:20:46;19.80;99.90
25128;DHT22;13107;51.304;6.866;2023-10-13T18:24:48;19.90;99.90
25128;DHT22;13107;51.304;6.866;2023-10-13T18:28:51;20.00;99.90
25128;DHT22;13107;51.304;6.866;2023-10-13T18:32:56;20.00;99.90
25128;DHT22;13107;51.304;6.866;2023-10-13T18:36:57;20.00;99.90
25128;DHT22;13107;51.304;6.866;2023-10-13T18:41:01;20.00;99.90
25128;DHT22;13107;51.304;6.866;2023-10-13T18:45:03;20.30;99.90
25128;DHT22;13107;51.304;6.866;2023-10-13T18:49:04;20.30;99.90
25128;DHT22;13107;51.304;6.866;2023-10-13T18:53:07;20.30;99.90
25128;DHT22;13107;51.304;6.866;2023-10-13T18:57:10;20.30;99.90
25128;DHT22;13107;51.304;6.866;2023-10-13T19:01:17;20.30;99.90
25128;DHT22;13107;51.304;6.866;2023-10-13T19:05:19;20.20;99.90
25128;DHT22;13107;51.304;6.866;2023-10-13T19:09:22;20.10;99.90
25128;DHT22;13107;51.304;6.866;2023-10-13T19:13:27;19.90;99.90
25128;DHT22;13107;51.304;6.866;2023-10-13T19:17:28;19.80;99.90
25128;DHT22;13107;51.304;6.866;2023-10-13T19:21:30;19.60;99.90
25128;DHT22;13107;51.304;6.866;2023-10-13T19:25:37;19.60;99.90
25128;DHT22;13107;51.304;6.866;2023-10-13T19:29:39;19.50;99.90
25128;DHT22;13107;51.304;6.866;2023-10-13T19:33:42;19.50;99.90
25128;DHT22;13107;51.304;6.866;2023-10-13T19:37:45;19.60;99.90
25128;DHT22;13107;51.304;6.866;2023-10-13T19:41:46;19.70;99.90
25128;DHT22;13107;51.304;6.866;2023-10-13T19:45:48;19.70;99.90
25128;DHT22;13107;51.304;6.866;2023-10-13T19:49:50;19.80;99.90
25128;DHT22;13107;51.304;6.866;2023-10-13T19:53:53;19.90;99.90
25128;DHT22;13107;51.304;6.866;2023-10-13T19:57:54;19.40;99.90
25128;DHT22;13107;51.304;6.866;2023-10-13T20:01:57;18.80;99.90
25128;DHT22;13107;51.304;6.866;2023-10-13T20:05:59;18.40;99.90
25128;DHT22;13107;51.304;6.866;2023-10-13T20:10:01;18.00;99.90
25128;DHT22;13107;51.304;6.866;2023-10-13T20:14:04;17.90;99.90
25128;DHT22;13107;51.304;6.866;2023-10-13T20:18:06;17.70;99.90
25128;DHT22;13107;51.304;6.866;2023-10-13T20:22:10;17.60;99.90
25128;DHT22;13107;51.304;6.866;2023-10-13T20:26:12;17.40;99.90
25128;DHT22;13107;51.304;6.866;2023-10-13T20:30:17;17.30;99.90
25128;DHT22;13107;51.304;6.866;2023-10-13T20:34:23;17.40;99.90
25128;DHT22;13107;51.304;6.866;2023-10-13T20:43:29;17.30;99.90
25128;DHT22;13107;51.304;6.866;2023-10-13T20:47:31;17.50;99.90
25128;DHT22;13107;51.304;6.866;2023-10-13T20:51:34;17.60;99.90
25128;DHT22;13107;51.304;6.866;2023-10-13T20:55:36;17.70;99.90
25128;DHT22;13107;51.304;6.866;2023-10-13T20:59:39;17.70;99.90
25128;DHT22;13107;51.304;6.866;2023-10-13T21:03:41;17.80;99.90
25128;DHT22;13107;51.304;6.866;2023-10-13T21:07:43;18.10;99.90
25128;DHT22;13107;51.304;6.866;2023-10-13T21:11:46;18.20;99.90
25128;DHT22;13107;51.304;6.866;2023-10-13T21:15:49;18.40;99.90
25128;DHT22;13107;51.304;6.866;2023-10-13T21:19:50;18.30;99.90
25128;DHT22;13107;51.304;6.866;2023-10-13T21:23:53;18.40;99.90
25128;DHT22;13107;51.304;6.866;2023-10-13T21:27:59;18.40;99.90
25128;DHT22;13107;51.304;6.866;2023-10-13T21:32:05;18.50;99.90
25128;DHT22;13107;51.304;6.866;2023-10-13T21:36:07;18.50;99.90
25128;DHT22;13107;51.304;6.866;2023-10-13T21:40:15;18.60;99.90
25128;DHT22;13107;51.304;6.866;2023-10-13T21:44:20;18.80;99.90
25128;DHT22;13107;51.304;6.866;2023-10-13T21:48:21;18.80;99.90
25128;DHT22;13107;51.304;6.866;2023-10-13T21:52:24;18.90;99.90
25128;DHT22;13107;51.304;6.866;2023-10-13T21:56:27;19.00;99.90
25128;DHT22;13107;51.304;6.866;2023-10-13T22:00:30;19.00;99.90
25128;DHT22;13107;51.304;6.866;2023-10-13T22:04:51;19.10;99.90
25128;DHT22;13107;51.304;6.866;2023-10-13T22:08:53;19.20;99.90
25128;DHT22;13107;51.304;6.866;2023-10-13T22:12:55;19.30;99.90
25128;DHT22;13107;51.304;6.866;2023-10-13T22:16:58;19.40;99.90
25128;DHT22;13107;51.304;6.866;2023-10-13T22:21:01;19.40;99.90
25128;DHT22;13107;51.304;6.866;2023-10-13T22:25:04;19.40;99.90
25128;DHT22;13107;51.304;6.866;2023-10-13T22:29:13;19.50;99.90
25128;DHT22;13107;51.304;6.866;2023-10-13T22:33:15;19.60;99.90
25128;DHT22;13107;51.304;6.866;2023-10-13T22:37:17;19.50;99.90
25128;DHT22;13107;51.304;6.866;2023-10-13T22:41:19;19.50;99.90
25128;DHT22;13107;51.304;6.866;2023-10-13T22:45:21;19.40;99.90
25128;DHT22;13107;51.304;6.866;2023-10-13T22:49:25;19.40;99.90
25128;DHT22;13107;51.304;6.866;2023-10-13T22:53:27;19.40;99.90
25128;DHT22;13107;51.304;6.866;2023-10-13T22:57:28;19.40;99.90
25128;DHT22;13107;51.304;6.866;2023-10-13T23:01:32;19.40;99.90
25128;DHT22;13107;51.304;6.866;2023-10-13T23:05:44;19.30;99.90
25128;DHT22;13107;51.304;6.866;2023-10-13T23:10:05;19.20;99.90
25128;DHT22;13107;51.304;6.866;2023-10-13T23:14:27;19.20;99.90
25128;DHT22;13107;51.304;6.866;2023-10-13T23:18:29;19.20;99.90
25128;DHT22;13107;51.304;6.866;2023-10-13T23:22:31;19.10;99.90
25128;DHT22;13107;51.304;6.866;2023-10-13T23:26:33;19.20;99.90
25128;DHT22;13107;51.304;6.866;2023-10-13T23:30:36;19.10;99.90
25128;DHT22;13107;51.304;6.866;2023-10-13T23:34:38;19.10;99.90
25128;DHT22;13107;51.304;6.866;2023-10-13T23:38:43;19.10;99.90
25128;DHT22;13107;51.304;6.866;2023-10-13T23:42:56;19.20;99.90
25128;DHT22;13107;51.304;6.866;2023-10-13T23:46:58;19.20;99.90
25128;DHT22;13107;51.304;6.866;2023-10-13T23:51:01;19.20;99.90
25128;DHT22;13107;51.304;6.866;2023-10-13T23:55:03;19.20;99.90
25128;DHT22;13107;51.304;6.866;2023-10-13T23:59:09;19.20;99.90
